Cacique Ariacaiquin, Argentina
Current Conditions -  °F | °C
As of 6:00 PM on Monday 20 Oct 2014 (Local Time) from SAAR Reporting Station
Clear Clear  
Wind Chill: 77°   Ceiling: Unl
Heat Index: 78°   Visibility: 6mi
Dew Point: 54°   Wind: 10mph
Humidity: 44%   Direction: 50°NE
Pressure: 30.03"   Gusts: NA
Location:  30.67°S, 60.5°W
Report Text: SAAR 202100Z 05009KT CAVOK 25/12 Q1017
Loading
Personal Weather Stations






























Interactive Weather Map
Tropical Storm Tracking
New forecast layout! Learn more

10-Day Weather Forecast

Advertisements
Track Severe Weather on mobile